Time;durP1;ratioP1;P1;durP2;ratioP2;P2;SDS_P1;SDS_P2;PMS_P1;PMS_P2;Temp;Humidity;BMP_temperature;BMP_pressure;BME280_temperature;BME280_humidity;BME280_pressure;Samples;Min_cycle;Max_cycle;Signal;HPM_P1;HPM_P2
2023/04/04 16:29:58;;;;;;;3.53;2.40;;;12.30;49.70;;;;;;5108669;27;21072;-58
2023/04/04 16:34:52;;;;;;;5.03;2.38;;;12.10;52.20;;;;;;5108187;27;20323;-60
2023/04/04 16:37:18;;;;;;;5.78;2.38;;;12.30;51.60;;;;;;5126705;28;20030;-59
2023/04/04 16:39:47;;;;;;;5.03;2.60;;;12.30;51.70;;;;;;5102270;28;20058;-62
2023/04/04 16:42:13;;;;;;;4.20;2.25;;;12.30;50.60;;;;;;5078072;27;20048;-59
2023/04/04 16:44:39;;;;;;;5.65;2.67;;;12.10;51.40;;;;;;5046690;28;20025;-62
2023/04/04 16:47:04;;;;;;;4.28;2.50;;;12.10;48.90;;;;;;5048938;28;20477;-61
2023/04/04 16:49:30;;;;;;;4.90;2.17;;;12.00;49.30;;;;;;5047906;28;20037;-62
2023/04/04 16:51:56;;;;;;;5.00;2.25;;;11.80;51.60;;;;;;5061688;28;20032;-62
2023/04/04 16:54:22;;;;;;;4.93;2.58;;;11.80;51.60;;;;;;5068035;28;20120;-62
2023/04/04 16:56:47;;;;;;;4.53;2.55;;;11.70;51.40;;;;;;5066828;28;20120;-62
2023/04/04 16:59:13;;;;;;;4.47;2.10;;;11.60;52.70;;;;;;5051700;28;20056;-62
2023/04/04 17:01:39;;;;;;;4.22;2.35;;;11.60;53.30;;;;;;5048173;28;20022;-61
2023/04/04 17:04:05;;;;;;;4.88;2.45;;;11.50;53.00;;;;;;5048434;28;20036;-61
2023/04/04 17:06:30;;;;;;;6.43;2.53;;;11.50;54.00;;;;;;5048300;28;20026;-61
2023/04/04 17:08:56;;;;;;;4.80;2.30;;;11.50;54.40;;;;;;5065323;28;20091;-62
2023/04/04 17:11:22;;;;;;;4.15;2.13;;;11.40;54.70;;;;;;5062323;28;20025;-60
2023/04/04 17:13:47;;;;;;;5.47;2.20;;;11.20;54.30;;;;;;5047237;28;20034;-62
2023/04/04 17:16:13;;;;;;;3.80;2.28;;;11.10;54.70;;;;;;5046826;28;20053;-60
2023/04/04 17:18:39;;;;;;;4.90;2.15;;;11.00;54.90;;;;;;5048127;28;20033;-61
2023/04/04 17:21:05;;;;;;;5.50;2.53;;;10.80;55.10;;;;;;5048937;28;20114;-61
2023/04/04 17:23:30;;;;;;;4.38;2.53;;;10.70;55.70;;;;;;5047682;28;20543;-60
2023/04/04 17:25:56;;;;;;;3.63;2.17;;;10.60;56.70;;;;;;5047315;28;20076;-62
2023/04/04 17:28:22;;;;;;;4.85;2.75;;;10.50;56.80;;;;;;5047524;28;20473;-61
2023/04/04 17:30:47;;;;;;;5.65;2.60;;;10.50;57.00;;;;;;5046654;28;20101;-62
2023/04/04 17:33:13;;;;;;;5.78;2.25;;;10.40;57.40;;;;;;5046242;28;20680;-60
2023/04/04 17:35:39;;;;;;;4.45;2.20;;;10.40;57.90;;;;;;5047685;28;20025;-60
2023/04/04 17:38:05;;;;;;;3.83;2.17;;;10.30;58.20;;;;;;5047792;28;20037;-60
2023/04/04 17:40:31;;;;;;;5.60;2.53;;;10.30;58.70;;;;;;5045629;28;20025;-60
2023/04/04 17:42:56;;;;;;;5.03;2.75;;;10.20;58.80;;;;;;5047132;28;20116;-59
2023/04/04 17:45:22;;;;;;;5.55;2.85;;;10.20;58.90;;;;;;5037975;28;20030;-61
2023/04/04 17:47:48;;;;;;;6.13;3.05;;;10.10;59.30;;;;;;5043370;28;20388;-62
2023/04/04 17:50:14;;;;;;;8.13;4.50;;;10.10;59.40;;;;;;5053144;28;20453;-62
2023/04/04 17:52:40;;;;;;;6.95;3.53;;;10.00;59.60;;;;;;5052301;28;20508;-62
2023/04/04 17:55:07;;;;;;;6.43;2.35;;;10.00;59.80;;;;;;5051522;28;20021;-62
2023/04/04 17:57:33;;;;;;;3.42;2.13;;;9.90;59.50;;;;;;5051091;28;20025;-60
2023/04/04 17:59:58;;;;;;;4.57;2.13;;;9.80;59.90;;;;;;5042505;28;20032;-62
2023/04/04 18:02:24;;;;;;;4.05;2.10;;;9.70;60.60;;;;;;5032951;28;20092;-60
2023/04/04 18:04:51;;;;;;;6.22;2.90;;;9.70;61.20;;;;;;5032180;28;20026;-62
2023/04/04 18:07:18;;;;;;;5.40;2.60;;;9.60;61.90;;;;;;5032055;28;20025;-63
2023/04/04 18:09:44;;;;;;;6.18;2.65;;;9.50;62.30;;;;;;5030994;28;20029;-62
2023/04/04 18:12:10;;;;;;;5.43;2.30;;;9.40;62.40;;;;;;5033462;28;20052;-60
2023/04/04 18:14:36;;;;;;;3.95;2.22;;;9.30;63.20;;;;;;5051717;28;20048;-62
2023/04/04 18:17:02;;;;;;;4.13;2.50;;;9.30;63.80;;;;;;5050923;28;20025;-62
2023/04/04 18:19:28;;;;;;;5.40;3.00;;;9.10;63.40;;;;;;5041138;28;20317;-60
2023/04/04 18:21:58;;;;;;;4.38;2.88;;;9.10;63.80;;;;;;5031499;28;20056;-60
2023/04/04 18:24:25;;;;;;;4.88;2.67;;;9.00;64.10;;;;;;5030413;28;20378;-60
2023/04/04 18:26:52;;;;;;;4.45;2.53;;;8.90;64.40;;;;;;5031551;28;20026;-62
2023/04/04 18:29:18;;;;;;;6.50;2.58;;;8.80;64.70;;;;;;5030298;28;20091;-60
2023/04/04 18:31:43;;;;;;;4.60;2.50;;;8.70;64.70;;;;;;5031663;28;20025;-62
2023/04/04 18:34:09;;;;;;;6.10;3.13;;;8.70;65.10;;;;;;5031702;28;20476;-62
2023/04/04 18:36:35;;;;;;;4.07;2.20;;;8.60;65.50;;;;;;5030879;28;20021;-61
2023/04/04 18:39:01;;;;;;;6.03;2.78;;;8.50;65.90;;;;;;5031393;28;20452;-63
2023/04/04 18:41:27;;;;;;;4.82;2.63;;;8.40;65.80;;;;;;5029800;28;20022;-60
2023/04/04 18:43:52;;;;;;;4.38;2.28;;;8.30;66.00;;;;;;5031146;28;20029;-62
2023/04/04 18:46:18;;;;;;;5.47;2.65;;;8.20;66.40;;;;;;5030201;28;20075;-63
2023/04/04 18:48:44;;;;;;;6.55;2.35;;;8.10;66.70;;;;;;5031247;28;20035;-61
2023/04/04 18:51:09;;;;;;;3.47;2.35;;;8.10;66.70;;;;;;5014175;28;20386;-61
2023/04/04 18:53:35;;;;;;;4.40;2.47;;;8.00;66.80;;;;;;5009461;28;20121;-61
2023/04/04 18:56:01;;;;;;;5.32;2.45;;;8.00;67.20;;;;;;5021268;28;20036;-61
2023/04/04 18:58:26;;;;;;;5.70;2.70;;;8.00;67.40;;;;;;5030070;28;20056;-61
2023/04/04 19:00:54;;;;;;;5.15;2.28;;;8.00;67.40;;;;;;5031083;28;20022;-60
2023/04/04 19:03:23;;;;;;;5.18;3.03;;;8.00;67.60;;;;;;5032268;28;20032;-61
2023/04/04 19:05:50;;;;;;;8.23;3.00;;;8.00;67.50;;;;;;5028881;28;20022;-60
2023/04/04 19:08:16;;;;;;;5.72;3.10;;;8.00;67.50;;;;;;5029345;28;20025;-60
2023/04/04 19:10:47;;;;;;;6.05;3.40;;;8.00;67.30;;;;;;5030284;28;20071;-60
2023/04/04 19:13:14;;;;;;;6.03;3.17;;;8.00;67.20;;;;;;5009741;28;20378;-61
2023/04/04 19:15:40;;;;;;;6.40;3.15;;;7.90;66.90;;;;;;5014930;28;20044;-60
2023/04/04 19:18:06;;;;;;;5.55;2.72;;;7.80;66.70;;;;;;5022887;28;20045;-60
2023/04/04 19:20:31;;;;;;;4.50;2.67;;;7.80;66.40;;;;;;5032802;28;20052;-60
2023/04/04 19:22:57;;;;;;;8.00;4.25;;;7.80;66.20;;;;;;5028839;28;20034;-60
2023/04/04 19:25:22;;;;;;;6.38;2.88;;;7.70;65.90;;;;;;5029184;28;20029;-60
2023/04/04 19:27:48;;;;;;;5.70;2.97;;;7.70;66.30;;;;;;5027923;28;20032;-60
2023/04/04 19:30:43;;;;;;;4.45;2.35;;;7.70;66.60;;;;;;5030074;28;20121;-60
2023/04/04 19:33:17;;;;;;;6.10;3.00;;;7.60;66.60;;;;;;5029064;28;20037;-60
2023/04/04 19:35:54;;;;;;;4.68;2.53;;;7.60;66.80;;;;;;5029215;28;20117;-60
2023/04/04 19:38:29;;;;;;;5.68;3.08;;;7.60;66.80;;;;;;5030748;28;20466;-60
2023/04/04 19:40:57;;;;;;;6.22;2.80;;;7.60;67.30;;;;;;5029687;28;20036;-61
2023/04/04 19:43:23;;;;;;;4.78;2.50;;;7.50;67.60;;;;;;5031759;28;20466;-60
2023/04/04 19:45:54;;;;;;;5.70;2.58;;;7.50;67.90;;;;;;5029982;28;20043;-60
2023/04/04 19:48:42;;;;;;;5.97;3.65;;;7.50;68.60;;;;;;5011669;28;20057;-60
2023/04/04 19:51:11;;;;;;;4.93;2.63;;;7.40;69.10;;;;;;5010882;28;20034;-60
2023/04/04 19:53:36;;;;;;;4.45;2.55;;;7.40;69.30;;;;;;5008674;28;20049;-61
2023/04/04 19:56:08;;;;;;;6.03;3.00;;;7.30;69.80;;;;;;5010917;28;20022;-60
2023/04/04 19:58:35;;;;;;;6.63;3.13;;;7.20;70.00;;;;;;5049663;28;20033;-61
2023/04/04 20:01:01;;;;;;;5.07;2.97;;;7.20;70.20;;;;;;5047958;28;20025;-61
2023/04/04 20:03:32;;;;;;;6.32;2.75;;;7.10;70.30;;;;;;5050450;28;20029;-60
2023/04/04 20:06:12;;;;;;;6.53;3.10;;;7.00;71.20;;;;;;5049607;28;20470;-61
2023/04/04 20:08:50;;;;;;;5.97;3.05;;;7.00;71.10;;;;;;5049268;28;20051;-61
2023/04/04 20:11:20;;;;;;;5.88;3.17;;;6.90;71.30;;;;;;5049975;28;20028;-61
2023/04/04 20:13:48;;;;;;;5.95;3.25;;;6.80;71.90;;;;;;5047723;28;20036;-60
2023/04/04 20:16:15;;;;;;;4.93;3.22;;;6.70;72.80;;;;;;5049504;28;20055;-62
2023/04/04 20:18:45;;;;;;;5.35;2.75;;;6.60;73.80;;;;;;5038534;28;20084;-60
2023/04/04 20:21:14;;;;;;;5.13;3.08;;;6.60;74.20;;;;;;5030160;28;20029;-60
2023/04/04 20:23:40;;;;;;;6.03;3.10;;;6.50;74.90;;;;;;5029069;28;20056;-60
2023/04/04 20:26:07;;;;;;;5.80;3.40;;;6.40;75.50;;;;;;5031614;28;20029;-60
2023/04/04 20:28:34;;;;;;;5.82;3.30;;;6.30;76.50;;;;;;5040394;28;20521;-60
2023/04/04 20:31:05;;;;;;;6.80;3.22;;;6.30;77.60;;;;;;5029128;28;20048;-61
2023/04/04 20:33:36;;;;;;;6.20;3.05;;;6.20;78.90;;;;;;5029742;28;20046;-60
2023/04/04 20:36:10;;;;;;;5.63;2.80;;;6.10;80.80;;;;;;5029474;28;20025;-60
2023/04/04 20:38:37;;;;;;;5.25;3.10;;;6.00;81.40;;;;;;5029888;28;20061;-61
2023/04/04 20:41:15;;;;;;;6.38;3.28;;;5.90;82.60;;;;;;5028232;28;20068;-60
2023/04/04 20:43:44;;;;;;;4.57;2.88;;;5.70;84.10;;;;;;5035346;28;20442;-61
2023/04/04 20:46:12;;;;;;;4.95;2.60;;;5.50;85.60;;;;;;5050021;28;20521;-60
2023/04/04 20:48:39;;;;;;;7.05;3.20;;;5.30;86.60;;;;;;5049765;28;20025;-61
2023/04/04 20:51:32;;;;;;;6.13;2.95;;;5.10;88.00;;;;;;5025623;28;20026;-60
2023/04/04 20:54:00;;;;;;;6.38;3.38;;;4.90;90.00;;;;;;5025065;28;20501;-60
2023/04/04 20:56:43;;;;;;;5.88;2.88;;;4.80;90.90;;;;;;5044688;28;20025;-60
2023/04/04 20:59:30;;;;;;;5.80;2.85;;;4.80;91.50;;;;;;5029215;28;20030;-61
2023/04/04 21:02:11;;;;;;;6.50;3.30;;;4.70;92.10;;;;;;5029390;28;20120;-60
2023/04/04 21:04:38;;;;;;;6.23;3.10;;;4.70;92.80;;;;;;5028270;28;20014;-60
2023/04/04 21:07:05;;;;;;;5.25;2.85;;;4.70;93.40;;;;;;5029919;28;20029;-60
2023/04/04 21:09:31;;;;;;;8.07;3.83;;;4.60;93.80;;;;;;5029592;28;20139;-61
2023/04/04 21:12:00;;;;;;;5.70;2.90;;;4.60;94.40;;;;;;5028814;28;20119;-60
2023/04/04 21:14:36;;;;;;;4.90;2.72;;;4.60;94.90;;;;;;5029577;28;20033;-60
2023/04/04 21:17:04;;;;;;;5.75;2.88;;;4.50;95.10;;;;;;5029176;28;20029;-59
